This is the latest recevied weather packets stored in our database for station/object KI4HRG. If no packets are shown the sender has not sent any weather packets the latest 10 day(s).
| Time | Temp. | Humidity | Pressure | Rain* | Wind** | Luminosity | Snow |
|---|---|---|---|---|---|---|---|
| 1787949819 | 33.89° C | 48% | 1015.5 hPa | 0 mm | - | 515 W/m² | - |
| 1787949519 | 34.44° C | 47% | 1015.4 hPa | 0 mm | - | 538 W/m² | - |
| 1787949214 | 33.33° C | 48% | 1015.6 hPa | 0 mm | - | 569 W/m² | - |
| 1787948909 | 33.89° C | 46% | 1015.6 hPa | 0 mm | - | 577 W/m² | - |
| 1787948605 | 33.89° C | 46% | 1015.7 hPa | 0 mm | - | 561 W/m² | - |
| 1787948300 | 34.44° C | 46% | 1015.6 hPa | 0 mm | - | 533 W/m² | - |
| 1787948000 | 33.89° C | 47% | 1015.8 hPa | 0 mm | - | 553 W/m² | - |
| 1787947698 | 33.89° C | 46% | 1015.6 hPa | 0 mm | - | 571 W/m² | - |
| 1787947393 | 33.89° C | 46% | 1015.8 hPa | 0 mm | - | 599 W/m² | - |
| 1787947092 | 33.89° C | 45% | 1015.9 hPa | 0 mm | - | 546 W/m² | - |
| 1787946786 | 33.89° C | 41% | 1016 hPa | 0 mm | - | 473 W/m² | - |
| 1787946484 | 33.33° C | 42% | 1016.2 hPa | 0 mm | - | 528 W/m² | - |
| 1787946180 | 34.44° C | 42% | 1016 hPa | 0 mm | - | 622 W/m² | - |
| 1787945880 | 33.89° C | 45% | 1016.3 hPa | 0 mm | - | 625 W/m² | - |
| 1787945575 | 33.89° C | 44% | 1016.2 hPa | 0 mm | - | 586 W/m² | - |
| 1787945270 | 33.33° C | 47% | 1016.5 hPa | 0 mm | - | 642 W/m² | - |
| 1787944969 | 32.78° C | 48% | 1016.5 hPa | 0 mm | - | 399 W/m² | - |
| 1787944667 | 33.89° C | 46% | 1016.5 hPa | 0 mm | - | 144 W/m² | - |
| 1787944363 | 33.33° C | 45% | 1016.6 hPa | 0 mm | - | 189 W/m² | - |
| 1787944058 | 33.89° C | 44% | 1016.6 hPa | 0 mm | - | 626 W/m² | - |
| 1787943753 | 34.44° C | 41% | 1016.6 hPa | 0 mm | - | 613 W/m² | - |
| 1787943448 | 32.78° C | 45% | 1016.5 hPa | 0 mm | - | 496 W/m² | - |
| 1787943144 | 33.33° C | 46% | 1016.8 hPa | 0 mm | - | 669 W/m² | - |
| 1787942838 | 33.33° C | 47% | 1016.8 hPa | 0 mm | - | 665 W/m² | - |
| 1787942534 | 33.33° C | 48% | 1016.8 hPa | 0 mm | - | 658 W/m² | - |
* Rain latest hour (hover to see other rain measurements)
** Current wind speed in m/s (hover to see current wind gust speed)